sensor_id;sensor_type;location;lat;lon;timestamp;P1;durP1;ratioP1;P2;durP2;ratioP2
58214;SDS011;44011;52.218;1.480;2022-10-31T00:00:22;9.52;;;2.58;;
58214;SDS011;44011;52.218;1.480;2022-10-31T00:02:47;9.18;;;2.30;;
58214;SDS011;44011;52.218;1.480;2022-10-31T00:05:13;3.78;;;2.10;;
58214;SDS011;44011;52.218;1.480;2022-10-31T00:07:38;8.70;;;2.58;;
58214;SDS011;44011;52.218;1.480;2022-10-31T00:10:04;7.00;;;2.10;;
58214;SDS011;44011;52.218;1.480;2022-10-31T00:12:30;8.75;;;2.28;;
58214;SDS011;44011;52.218;1.480;2022-10-31T00:14:55;5.63;;;2.25;;
58214;SDS011;44011;52.218;1.480;2022-10-31T00:17:21;6.20;;;1.90;;
58214;SDS011;44011;52.218;1.480;2022-10-31T00:19:46;4.05;;;1.75;;
58214;SDS011;44011;52.218;1.480;2022-10-31T00:22:12;7.60;;;2.00;;
58214;SDS011;44011;52.218;1.480;2022-10-31T00:24:37;7.32;;;1.98;;
58214;SDS011;44011;52.218;1.480;2022-10-31T00:27:03;5.47;;;2.05;;
58214;SDS011;44011;52.218;1.480;2022-10-31T00:29:28;6.13;;;1.95;;
58214;SDS011;44011;52.218;1.480;2022-10-31T00:31:54;4.57;;;2.03;;
58214;SDS011;44011;52.218;1.480;2022-10-31T00:34:19;5.13;;;2.28;;
58214;SDS011;44011;52.218;1.480;2022-10-31T00:36:45;5.43;;;2.20;;
58214;SDS011;44011;52.218;1.480;2022-10-31T00:39:10;8.10;;;2.05;;
58214;SDS011;44011;52.218;1.480;2022-10-31T00:41:35;5.43;;;2.08;;
58214;SDS011;44011;52.218;1.480;2022-10-31T00:44:01;6.75;;;2.55;;
58214;SDS011;44011;52.218;1.480;2022-10-31T00:46:26;8.93;;;2.45;;
58214;SDS011;44011;52.218;1.480;2022-10-31T00:48:52;5.90;;;2.08;;
58214;SDS011;44011;52.218;1.480;2022-10-31T00:51:17;4.53;;;2.05;;
58214;SDS011;44011;52.218;1.480;2022-10-31T00:53:43;6.72;;;2.78;;
58214;SDS011;44011;52.218;1.480;2022-10-31T00:56:09;3.28;;;2.00;;
58214;SDS011;44011;52.218;1.480;2022-10-31T00:58:34;5.75;;;2.20;;
58214;SDS011;44011;52.218;1.480;2022-10-31T01:01:00;10.55;;;2.50;;
58214;SDS011;44011;52.218;1.480;2022-10-31T01:03:29;7.78;;;2.42;;
58214;SDS011;44011;52.218;1.480;2022-10-31T01:06:03;6.32;;;2.00;;
58214;SDS011;44011;52.218;1.480;2022-10-31T01:08:29;5.18;;;2.10;;
58214;SDS011;44011;52.218;1.480;2022-10-31T01:11:02;5.22;;;2.30;;
58214;SDS011;44011;52.218;1.480;2022-10-31T01:13:33;5.90;;;2.17;;
58214;SDS011;44011;52.218;1.480;2022-10-31T01:15:59;7.53;;;2.53;;
58214;SDS011;44011;52.218;1.480;2022-10-31T01:18:25;8.45;;;2.42;;
58214;SDS011;44011;52.218;1.480;2022-10-31T01:20:58;7.65;;;2.83;;
58214;SDS011;44011;52.218;1.480;2022-10-31T01:23:24;7.97;;;2.63;;
58214;SDS011;44011;52.218;1.480;2022-10-31T01:25:50;4.55;;;2.00;;
58214;SDS011;44011;52.218;1.480;2022-10-31T01:28:24;3.28;;;2.00;;
58214;SDS011;44011;52.218;1.480;2022-10-31T01:30:49;6.35;;;2.20;;
58214;SDS011;44011;52.218;1.480;2022-10-31T01:33:15;3.35;;;2.20;;
58214;SDS011;44011;52.218;1.480;2022-10-31T01:35:40;5.40;;;2.20;;
58214;SDS011;44011;52.218;1.480;2022-10-31T01:38:06;3.72;;;2.28;;
58214;SDS011;44011;52.218;1.480;2022-10-31T01:40:31;11.35;;;2.50;;
58214;SDS011;44011;52.218;1.480;2022-10-31T01:42:57;6.95;;;2.28;;
58214;SDS011;44011;52.218;1.480;2022-10-31T01:45:22;3.53;;;1.85;;
58214;SDS011;44011;52.218;1.480;2022-10-31T01:47:48;3.72;;;2.33;;
58214;SDS011;44011;52.218;1.480;2022-10-31T01:50:18;4.88;;;2.20;;
58214;SDS011;44011;52.218;1.480;2022-10-31T01:52:56;5.38;;;2.58;;
58214;SDS011;44011;52.218;1.480;2022-10-31T01:55:26;3.47;;;1.83;;
58214;SDS011;44011;52.218;1.480;2022-10-31T01:57:55;6.13;;;2.45;;
58214;SDS011;44011;52.218;1.480;2022-10-31T02:00:23;8.10;;;3.42;;
58214;SDS011;44011;52.218;1.480;2022-10-31T02:02:48;5.68;;;2.33;;
58214;SDS011;44011;52.218;1.480;2022-10-31T02:05:19;11.48;;;2.92;;
58214;SDS011;44011;52.218;1.480;2022-10-31T02:10:49;12.52;;;2.78;;
58214;SDS011;44011;52.218;1.480;2022-10-31T02:13:15;7.25;;;2.47;;
58214;SDS011;44011;52.218;1.480;2022-10-31T02:15:41;8.32;;;2.40;;
58214;SDS011;44011;52.218;1.480;2022-10-31T02:18:08;6.38;;;2.60;;
58214;SDS011;44011;52.218;1.480;2022-10-31T02:20:39;8.95;;;2.58;;
58214;SDS011;44011;52.218;1.480;2022-10-31T02:31:32;10.35;;;2.35;;
58214;SDS011;44011;52.218;1.480;2022-10-31T02:34:01;5.40;;;2.53;;
58214;SDS011;44011;52.218;1.480;2022-10-31T02:41:40;6.03;;;2.40;;
58214;SDS011;44011;52.218;1.480;2022-10-31T02:46:59;7.90;;;3.28;;
58214;SDS011;44011;52.218;1.480;2022-10-31T02:52:31;13.55;;;4.05;;
58214;SDS011;44011;52.218;1.480;2022-10-31T02:54:57;9.35;;;4.20;;
58214;SDS011;44011;52.218;1.480;2022-10-31T02:57:28;8.50;;;3.65;;
58214;SDS011;44011;52.218;1.480;2022-10-31T02:59:58;9.68;;;4.13;;
58214;SDS011;44011;52.218;1.480;2022-10-31T03:02:40;12.67;;;3.73;;
58214;SDS011;44011;52.218;1.480;2022-10-31T03:08:16;8.50;;;3.22;;
58214;SDS011;44011;52.218;1.480;2022-10-31T03:10:55;11.93;;;4.95;;
58214;SDS011;44011;52.218;1.480;2022-10-31T03:19:02;13.43;;;4.18;;
58214;SDS011;44011;52.218;1.480;2022-10-31T03:26:33;9.10;;;4.30;;
58214;SDS011;44011;52.218;1.480;2022-10-31T03:29:02;7.63;;;4.22;;
58214;SDS011;44011;52.218;1.480;2022-10-31T03:31:31;12.23;;;4.07;;
58214;SDS011;44011;52.218;1.480;2022-10-31T03:34:00;11.88;;;4.35;;
58214;SDS011;44011;52.218;1.480;2022-10-31T03:36:26;10.48;;;4.80;;
58214;SDS011;44011;52.218;1.480;2022-10-31T03:38:54;12.02;;;3.92;;
58214;SDS011;44011;52.218;1.480;2022-10-31T03:41:21;7.63;;;4.38;;
58214;SDS011;44011;52.218;1.480;2022-10-31T03:43:52;8.98;;;3.63;;
58214;SDS011;44011;52.218;1.480;2022-10-31T03:46:23;11.80;;;3.90;;
58214;SDS011;44011;52.218;1.480;2022-10-31T03:48:49;8.75;;;4.13;;
58214;SDS011;44011;52.218;1.480;2022-10-31T03:51:16;9.27;;;3.80;;
58214;SDS011;44011;52.218;1.480;2022-10-31T03:53:59;10.85;;;3.85;;
58214;SDS011;44011;52.218;1.480;2022-10-31T03:56:35;13.00;;;5.00;;
58214;SDS011;44011;52.218;1.480;2022-10-31T03:59:07;5.68;;;3.75;;
58214;SDS011;44011;52.218;1.480;2022-10-31T04:01:42;10.35;;;3.97;;
58214;SDS011;44011;52.218;1.480;2022-10-31T04:04:11;7.93;;;3.83;;
58214;SDS011;44011;52.218;1.480;2022-10-31T04:06:36;7.95;;;4.30;;
58214;SDS011;44011;52.218;1.480;2022-10-31T04:09:03;6.75;;;3.15;;
58214;SDS011;44011;52.218;1.480;2022-10-31T04:11:36;6.68;;;3.25;;
58214;SDS011;44011;52.218;1.480;2022-10-31T04:14:05;11.02;;;4.85;;
58214;SDS011;44011;52.218;1.480;2022-10-31T04:16:31;6.25;;;3.00;;
58214;SDS011;44011;52.218;1.480;2022-10-31T04:18:57;8.07;;;3.45;;
58214;SDS011;44011;52.218;1.480;2022-10-31T04:21:29;10.80;;;3.88;;
58214;SDS011;44011;52.218;1.480;2022-10-31T04:23:55;8.13;;;3.33;;
58214;SDS011;44011;52.218;1.480;2022-10-31T04:26:21;8.48;;;3.20;;
58214;SDS011;44011;52.218;1.480;2022-10-31T04:28:46;12.65;;;4.32;;
58214;SDS011;44011;52.218;1.480;2022-10-31T04:31:12;9.73;;;3.40;;
58214;SDS011;44011;52.218;1.480;2022-10-31T04:33:38;9.10;;;3.38;;
58214;SDS011;44011;52.218;1.480;2022-10-31T04:36:03;6.93;;;3.60;;
58214;SDS011;44011;52.218;1.480;2022-10-31T04:38:32;11.88;;;4.30;;
58214;SDS011;44011;52.218;1.480;2022-10-31T04:40:58;6.85;;;4.10;;
58214;SDS011;44011;52.218;1.480;2022-10-31T04:43:23;15.98;;;4.80;;
58214;SDS011;44011;52.218;1.480;2022-10-31T04:45:49;8.43;;;3.42;;
58214;SDS011;44011;52.218;1.480;2022-10-31T04:48:14;11.15;;;4.13;;
58214;SDS011;44011;52.218;1.480;2022-10-31T04:50:40;7.72;;;4.20;;
58214;SDS011;44011;52.218;1.480;2022-10-31T04:53:05;10.00;;;3.80;;
58214;SDS011;44011;52.218;1.480;2022-10-31T04:55:31;8.38;;;3.75;;
58214;SDS011;44011;52.218;1.480;2022-10-31T04:57:56;8.30;;;4.15;;
58214;SDS011;44011;52.218;1.480;2022-10-31T05:00:23;8.43;;;4.53;;
58214;SDS011;44011;52.218;1.480;2022-10-31T05:02:50;17.45;;;4.40;;
58214;SDS011;44011;52.218;1.480;2022-10-31T05:05:18;11.27;;;3.75;;
58214;SDS011;44011;52.218;1.480;2022-10-31T05:07:45;12.77;;;4.22;;
58214;SDS011;44011;52.218;1.480;2022-10-31T05:10:13;13.00;;;6.82;;
58214;SDS011;44011;52.218;1.480;2022-10-31T05:12:50;12.20;;;4.25;;
58214;SDS011;44011;52.218;1.480;2022-10-31T05:15:17;4.55;;;3.50;;
58214;SDS011;44011;52.218;1.480;2022-10-31T05:17:43;6.93;;;4.40;;
58214;SDS011;44011;52.218;1.480;2022-10-31T05:20:09;8.48;;;3.42;;
58214;SDS011;44011;52.218;1.480;2022-10-31T05:22:36;11.02;;;4.47;;
58214;SDS011;44011;52.218;1.480;2022-10-31T05:25:01;12.27;;;4.75;;
58214;SDS011;44011;52.218;1.480;2022-10-31T05:27:27;8.98;;;4.88;;
58214;SDS011;44011;52.218;1.480;2022-10-31T05:29:52;12.20;;;5.30;;
58214;SDS011;44011;52.218;1.480;2022-10-31T05:32:18;25.38;;;6.65;;
58214;SDS011;44011;52.218;1.480;2022-10-31T05:34:43;19.30;;;5.18;;
58214;SDS011;44011;52.218;1.480;2022-10-31T05:37:09;14.73;;;4.97;;
58214;SDS011;44011;52.218;1.480;2022-10-31T05:39:34;23.60;;;8.90;;
58214;SDS011;44011;52.218;1.480;2022-10-31T05:41:59;12.80;;;5.57;;
58214;SDS011;44011;52.218;1.480;2022-10-31T05:44:25;11.90;;;4.90;;
58214;SDS011;44011;52.218;1.480;2022-10-31T05:46:50;9.18;;;5.15;;
58214;SDS011;44011;52.218;1.480;2022-10-31T05:49:16;8.35;;;5.07;;
58214;SDS011;44011;52.218;1.480;2022-10-31T05:51:42;10.30;;;4.93;;
58214;SDS011;44011;52.218;1.480;2022-10-31T05:54:08;10.18;;;5.00;;
58214;SDS011;44011;52.218;1.480;2022-10-31T05:56:33;7.18;;;4.72;;
58214;SDS011;44011;52.218;1.480;2022-10-31T05:58:58;10.90;;;4.95;;
58214;SDS011;44011;52.218;1.480;2022-10-31T06:01:24;6.78;;;4.20;;
58214;SDS011;44011;52.218;1.480;2022-10-31T06:03:49;12.95;;;5.57;;
58214;SDS011;44011;52.218;1.480;2022-10-31T06:06:15;9.45;;;5.93;;
58214;SDS011;44011;52.218;1.480;2022-10-31T06:08:40;10.25;;;5.00;;
58214;SDS011;44011;52.218;1.480;2022-10-31T06:11:06;12.35;;;5.70;;
58214;SDS011;44011;52.218;1.480;2022-10-31T06:13:31;15.00;;;6.30;;
58214;SDS011;44011;52.218;1.480;2022-10-31T06:15:57;10.63;;;4.32;;
58214;SDS011;44011;52.218;1.480;2022-10-31T06:18:22;10.50;;;4.53;;
58214;SDS011;44011;52.218;1.480;2022-10-31T06:20:48;6.72;;;4.10;;
58214;SDS011;44011;52.218;1.480;2022-10-31T06:23:13;7.63;;;4.20;;
58214;SDS011;44011;52.218;1.480;2022-10-31T06:25:39;7.50;;;3.97;;
58214;SDS011;44011;52.218;1.480;2022-10-31T06:28:04;8.63;;;4.55;;
58214;SDS011;44011;52.218;1.480;2022-10-31T06:30:30;11.00;;;4.35;;
58214;SDS011;44011;52.218;1.480;2022-10-31T06:33:01;7.55;;;4.20;;
58214;SDS011;44011;52.218;1.480;2022-10-31T06:35:28;9.15;;;4.88;;
58214;SDS011;44011;52.218;1.480;2022-10-31T06:37:53;9.75;;;4.50;;
58214;SDS011;44011;52.218;1.480;2022-10-31T06:40:19;7.50;;;3.88;;
58214;SDS011;44011;52.218;1.480;2022-10-31T06:42:44;7.30;;;4.00;;
58214;SDS011;44011;52.218;1.480;2022-10-31T06:45:10;6.82;;;4.30;;
58214;SDS011;44011;52.218;1.480;2022-10-31T06:47:35;8.75;;;4.60;;
58214;SDS011;44011;52.218;1.480;2022-10-31T06:50:01;11.35;;;4.47;;
58214;SDS011;44011;52.218;1.480;2022-10-31T06:52:26;11.80;;;3.95;;
58214;SDS011;44011;52.218;1.480;2022-10-31T06:54:52;7.47;;;3.63;;
58214;SDS011;44011;52.218;1.480;2022-10-31T06:57:17;15.27;;;4.20;;
58214;SDS011;44011;52.218;1.480;2022-10-31T06:59:43;8.48;;;4.32;;
58214;SDS011;44011;52.218;1.480;2022-10-31T07:02:09;9.68;;;4.20;;
58214;SDS011;44011;52.218;1.480;2022-10-31T07:04:35;9.25;;;4.03;;
58214;SDS011;44011;52.218;1.480;2022-10-31T07:07:00;7.97;;;3.55;;
58214;SDS011;44011;52.218;1.480;2022-10-31T07:09:26;6.88;;;3.55;;
58214;SDS011;44011;52.218;1.480;2022-10-31T07:11:52;13.02;;;3.90;;
58214;SDS011;44011;52.218;1.480;2022-10-31T07:14:18;14.40;;;4.68;;
58214;SDS011;44011;52.218;1.480;2022-10-31T07:16:43;15.43;;;4.53;;
58214;SDS011;44011;52.218;1.480;2022-10-31T07:19:09;12.10;;;4.75;;
58214;SDS011;44011;52.218;1.480;2022-10-31T07:21:34;15.30;;;4.07;;
58214;SDS011;44011;52.218;1.480;2022-10-31T07:23:59;9.38;;;3.60;;
58214;SDS011;44011;52.218;1.480;2022-10-31T07:26:25;14.98;;;4.78;;
58214;SDS011;44011;52.218;1.480;2022-10-31T07:28:52;6.50;;;3.63;;
58214;SDS011;44011;52.218;1.480;2022-10-31T07:31:18;12.23;;;3.60;;
58214;SDS011;44011;52.218;1.480;2022-10-31T07:33:43;10.48;;;3.90;;
58214;SDS011;44011;52.218;1.480;2022-10-31T07:36:09;12.93;;;4.47;;
58214;SDS011;44011;52.218;1.480;2022-10-31T07:38:34;13.77;;;4.15;;
58214;SDS011;44011;52.218;1.480;2022-10-31T07:40:59;13.07;;;4.10;;
58214;SDS011;44011;52.218;1.480;2022-10-31T07:43:25;9.40;;;3.90;;
58214;SDS011;44011;52.218;1.480;2022-10-31T07:45:52;10.80;;;3.92;;
58214;SDS011;44011;52.218;1.480;2022-10-31T07:48:18;12.30;;;3.90;;
58214;SDS011;44011;52.218;1.480;2022-10-31T07:50:44;11.25;;;4.63;;
58214;SDS011;44011;52.218;1.480;2022-10-31T07:53:10;14.02;;;3.88;;
58214;SDS011;44011;52.218;1.480;2022-10-31T07:55:36;10.10;;;3.13;;
58214;SDS011;44011;52.218;1.480;2022-10-31T08:00:28;15.40;;;4.13;;
58214;SDS011;44011;52.218;1.480;2022-10-31T08:05:52;12.10;;;3.45;;
58214;SDS011;44011;52.218;1.480;2022-10-31T08:08:17;11.35;;;3.95;;
58214;SDS011;44011;52.218;1.480;2022-10-31T08:10:43;12.00;;;4.00;;
58214;SDS011;44011;52.218;1.480;2022-10-31T08:13:11;12.88;;;4.97;;
58214;SDS011;44011;52.218;1.480;2022-10-31T08:15:38;13.27;;;3.72;;
58214;SDS011;44011;52.218;1.480;2022-10-31T08:18:06;14.70;;;3.75;;
58214;SDS011;44011;52.218;1.480;2022-10-31T08:20:36;11.73;;;4.18;;
58214;SDS011;44011;52.218;1.480;2022-10-31T08:23:02;18.02;;;4.13;;
58214;SDS011;44011;52.218;1.480;2022-10-31T08:25:29;7.70;;;4.07;;
58214;SDS011;44011;52.218;1.480;2022-10-31T08:27:56;14.85;;;4.35;;
58214;SDS011;44011;52.218;1.480;2022-10-31T08:30:22;12.93;;;4.10;;
58214;SDS011;44011;52.218;1.480;2022-10-31T08:33:11;9.80;;;4.60;;
58214;SDS011;44011;52.218;1.480;2022-10-31T08:35:39;14.38;;;4.57;;
58214;SDS011;44011;52.218;1.480;2022-10-31T08:38:05;10.90;;;3.92;;
58214;SDS011;44011;52.218;1.480;2022-10-31T08:40:32;12.27;;;4.40;;
58214;SDS011;44011;52.218;1.480;2022-10-31T08:45:26;14.25;;;4.68;;
58214;SDS011;44011;52.218;1.480;2022-10-31T08:47:56;16.55;;;5.18;;
58214;SDS011;44011;52.218;1.480;2022-10-31T08:50:22;15.27;;;4.32;;
58214;SDS011;44011;52.218;1.480;2022-10-31T08:52:48;14.38;;;4.75;;
58214;SDS011;44011;52.218;1.480;2022-10-31T08:55:14;14.32;;;4.35;;
58214;SDS011;44011;52.218;1.480;2022-10-31T08:57:39;14.35;;;4.47;;
58214;SDS011;44011;52.218;1.480;2022-10-31T09:00:05;20.80;;;4.55;;
58214;SDS011;44011;52.218;1.480;2022-10-31T09:02:31;11.68;;;4.35;;
58214;SDS011;44011;52.218;1.480;2022-10-31T09:04:56;16.27;;;4.50;;
58214;SDS011;44011;52.218;1.480;2022-10-31T09:07:22;22.42;;;5.35;;
58214;SDS011;44011;52.218;1.480;2022-10-31T09:09:48;17.75;;;5.60;;
58214;SDS011;44011;52.218;1.480;2022-10-31T09:12:13;13.45;;;4.35;;
58214;SDS011;44011;52.218;1.480;2022-10-31T09:14:38;11.35;;;4.38;;
58214;SDS011;44011;52.218;1.480;2022-10-31T09:17:04;16.45;;;4.63;;
58214;SDS011;44011;52.218;1.480;2022-10-31T09:19:29;16.27;;;5.05;;
58214;SDS011;44011;52.218;1.480;2022-10-31T09:21:55;14.95;;;4.90;;
58214;SDS011;44011;52.218;1.480;2022-10-31T09:24:20;23.85;;;5.40;;
58214;SDS011;44011;52.218;1.480;2022-10-31T09:26:46;13.00;;;4.85;;
58214;SDS011;44011;52.218;1.480;2022-10-31T09:29:11;15.88;;;5.10;;
58214;SDS011;44011;52.218;1.480;2022-10-31T09:31:37;17.83;;;6.25;;
58214;SDS011;44011;52.218;1.480;2022-10-31T09:34:02;15.30;;;5.40;;
58214;SDS011;44011;52.218;1.480;2022-10-31T09:36:27;12.10;;;5.38;;
58214;SDS011;44011;52.218;1.480;2022-10-31T09:38:53;10.40;;;5.05;;
58214;SDS011;44011;52.218;1.480;2022-10-31T09:41:24;11.18;;;5.78;;
58214;SDS011;44011;52.218;1.480;2022-10-31T09:44:05;11.30;;;5.85;;
58214;SDS011;44011;52.218;1.480;2022-10-31T09:46:41;19.27;;;6.85;;
58214;SDS011;44011;52.218;1.480;2022-10-31T09:52:12;14.48;;;5.53;;
58214;SDS011;44011;52.218;1.480;2022-10-31T09:57:41;15.43;;;5.95;;
58214;SDS011;44011;52.218;1.480;2022-10-31T10:00:10;15.75;;;5.72;;
58214;SDS011;44011;52.218;1.480;2022-10-31T10:02:55;11.35;;;5.05;;
58214;SDS011;44011;52.218;1.480;2022-10-31T10:05:43;12.23;;;4.18;;
58214;SDS011;44011;52.218;1.480;2022-10-31T10:08:18;14.60;;;6.65;;
58214;SDS011;44011;52.218;1.480;2022-10-31T10:10:56;12.48;;;4.30;;
58214;SDS011;44011;52.218;1.480;2022-10-31T10:24:03;9.80;;;4.05;;
58214;SDS011;44011;52.218;1.480;2022-10-31T10:26:37;5.57;;;3.80;;
58214;SDS011;44011;52.218;1.480;2022-10-31T10:29:12;5.65;;;3.42;;
58214;SDS011;44011;52.218;1.480;2022-10-31T10:31:53;9.48;;;4.03;;
58214;SDS011;44011;52.218;1.480;2022-10-31T10:34:20;9.13;;;3.55;;
58214;SDS011;44011;52.218;1.480;2022-10-31T10:39:53;12.85;;;3.60;;
58214;SDS011;44011;52.218;1.480;2022-10-31T10:42:21;8.05;;;3.47;;
58214;SDS011;44011;52.218;1.480;2022-10-31T10:45:16;8.40;;;3.40;;
58214;SDS011;44011;52.218;1.480;2022-10-31T10:48:14;12.90;;;3.30;;
58214;SDS011;44011;52.218;1.480;2022-10-31T10:50:46;7.38;;;3.30;;
58214;SDS011;44011;52.218;1.480;2022-10-31T10:58:17;9.95;;;3.85;;
58214;SDS011;44011;52.218;1.480;2022-10-31T11:00:43;10.43;;;3.10;;
58214;SDS011;44011;52.218;1.480;2022-10-31T11:03:15;7.68;;;2.97;;
58214;SDS011;44011;52.218;1.480;2022-10-31T11:05:57;15.23;;;3.30;;
58214;SDS011;44011;52.218;1.480;2022-10-31T11:08:30;7.50;;;3.88;;
58214;SDS011;44011;52.218;1.480;2022-10-31T11:13:32;14.52;;;2.55;;
58214;SDS011;44011;52.218;1.480;2022-10-31T11:16:05;6.15;;;2.83;;
58214;SDS011;44011;52.218;1.480;2022-10-31T11:18:34;7.35;;;3.10;;
58214;SDS011;44011;52.218;1.480;2022-10-31T11:21:03;12.52;;;4.00;;
58214;SDS011;44011;52.218;1.480;2022-10-31T11:23:29;7.25;;;3.08;;
58214;SDS011;44011;52.218;1.480;2022-10-31T11:26:02;12.10;;;3.95;;
58214;SDS011;44011;52.218;1.480;2022-10-31T11:28:30;6.70;;;3.83;;
58214;SDS011;44011;52.218;1.480;2022-10-31T11:31:11;6.13;;;2.58;;
58214;SDS011;44011;52.218;1.480;2022-10-31T11:33:48;8.07;;;2.47;;
58214;SDS011;44011;52.218;1.480;2022-10-31T11:36:30;5.82;;;2.70;;
58214;SDS011;44011;52.218;1.480;2022-10-31T11:38:57;10.57;;;2.55;;
58214;SDS011;44011;52.218;1.480;2022-10-31T11:41:26;5.18;;;1.98;;
58214;SDS011;44011;52.218;1.480;2022-10-31T11:43:55;8.55;;;2.50;;
58214;SDS011;44011;52.218;1.480;2022-10-31T11:46:26;16.20;;;3.15;;
58214;SDS011;44011;52.218;1.480;2022-10-31T11:48:54;6.80;;;2.20;;
58214;SDS011;44011;52.218;1.480;2022-10-31T11:51:24;11.13;;;3.17;;
58214;SDS011;44011;52.218;1.480;2022-10-31T11:53:51;11.93;;;2.97;;
58214;SDS011;44011;52.218;1.480;2022-10-31T11:56:18;4.88;;;2.35;;
58214;SDS011;44011;52.218;1.480;2022-10-31T11:58:54;8.02;;;2.70;;
58214;SDS011;44011;52.218;1.480;2022-10-31T12:01:25;7.20;;;2.50;;
58214;SDS011;44011;52.218;1.480;2022-10-31T12:06:36;7.50;;;3.17;;
58214;SDS011;44011;52.218;1.480;2022-10-31T12:12:11;10.70;;;2.10;;
58214;SDS011;44011;52.218;1.480;2022-10-31T12:17:37;5.65;;;2.35;;
58214;SDS011;44011;52.218;1.480;2022-10-31T12:25:12;10.68;;;4.70;;
58214;SDS011;44011;52.218;1.480;2022-10-31T12:27:54;8.75;;;4.13;;
58214;SDS011;44011;52.218;1.480;2022-10-31T12:30:43;11.90;;;3.28;;
58214;SDS011;44011;52.218;1.480;2022-10-31T12:42:03;7.45;;;2.30;;
58214;SDS011;44011;52.218;1.480;2022-10-31T12:55:47;5.82;;;1.60;;
58214;SDS011;44011;52.218;1.480;2022-10-31T12:58:21;5.95;;;2.42;;
58214;SDS011;44011;52.218;1.480;2022-10-31T13:00:54;6.78;;;1.80;;
58214;SDS011;44011;52.218;1.480;2022-10-31T13:03:36;3.50;;;1.70;;
58214;SDS011;44011;52.218;1.480;2022-10-31T13:06:08;4.55;;;1.50;;
58214;SDS011;44011;52.218;1.480;2022-10-31T13:08:43;6.22;;;1.63;;
58214;SDS011;44011;52.218;1.480;2022-10-31T13:11:45;6.80;;;1.80;;
58214;SDS011;44011;52.218;1.480;2022-10-31T13:14:09;4.95;;;1.55;;
58214;SDS011;44011;52.218;1.480;2022-10-31T13:16:40;6.10;;;1.80;;
58214;SDS011;44011;52.218;1.480;2022-10-31T13:19:14;18.73;;;1.95;;
58214;SDS011;44011;52.218;1.480;2022-10-31T13:21:54;9.40;;;1.73;;
58214;SDS011;44011;52.218;1.480;2022-10-31T13:24:23;7.97;;;2.30;;
58214;SDS011;44011;52.218;1.480;2022-10-31T13:26:54;5.47;;;2.25;;
58214;SDS011;44011;52.218;1.480;2022-10-31T13:29:23;7.28;;;1.70;;
58214;SDS011;44011;52.218;1.480;2022-10-31T13:31:52;8.23;;;1.73;;
58214;SDS011;44011;52.218;1.480;2022-10-31T13:34:19;3.53;;;1.60;;
58214;SDS011;44011;52.218;1.480;2022-10-31T13:45:06;6.93;;;1.70;;
58214;SDS011;44011;52.218;1.480;2022-10-31T13:47:35;8.98;;;2.03;;
58214;SDS011;44011;52.218;1.480;2022-10-31T13:50:21;11.02;;;1.85;;
58214;SDS011;44011;52.218;1.480;2022-10-31T13:52:48;4.60;;;2.47;;
58214;SDS011;44011;52.218;1.480;2022-10-31T13:55:47;3.78;;;2.40;;
58214;SDS011;44011;52.218;1.480;2022-10-31T14:00:45;8.40;;;1.80;;
58214;SDS011;44011;52.218;1.480;2022-10-31T14:03:18;5.70;;;2.38;;
58214;SDS011;44011;52.218;1.480;2022-10-31T14:05:44;5.97;;;1.83;;
58214;SDS011;44011;52.218;1.480;2022-10-31T14:08:18;7.85;;;1.77;;
58214;SDS011;44011;52.218;1.480;2022-10-31T14:10:46;7.35;;;2.00;;
58214;SDS011;44011;52.218;1.480;2022-10-31T14:13:32;4.78;;;1.70;;
58214;SDS011;44011;52.218;1.480;2022-10-31T14:16:23;4.20;;;1.20;;
58214;SDS011;44011;52.218;1.480;2022-10-31T14:19:00;11.55;;;1.65;;
58214;SDS011;44011;52.218;1.480;2022-10-31T14:21:31;6.10;;;1.73;;
58214;SDS011;44011;52.218;1.480;2022-10-31T14:24:02;6.25;;;2.08;;
58214;SDS011;44011;52.218;1.480;2022-10-31T14:27:35;4.43;;;1.58;;
58214;SDS011;44011;52.218;1.480;2022-10-31T14:29:50;4.85;;;2.00;;
58214;SDS011;44011;52.218;1.480;2022-10-31T14:32:22;7.35;;;1.83;;
58214;SDS011;44011;52.218;1.480;2022-10-31T14:34:52;4.60;;;1.85;;
58214;SDS011;44011;52.218;1.480;2022-10-31T14:37:29;6.82;;;1.95;;
58214;SDS011;44011;52.218;1.480;2022-10-31T14:45:53;8.77;;;1.70;;
58214;SDS011;44011;52.218;1.480;2022-10-31T14:48:45;5.82;;;1.75;;
58214;SDS011;44011;52.218;1.480;2022-10-31T14:51:44;7.38;;;2.58;;
58214;SDS011;44011;52.218;1.480;2022-10-31T14:54:14;4.80;;;1.58;;
58214;SDS011;44011;52.218;1.480;2022-10-31T14:56:53;9.30;;;2.20;;
58214;SDS011;44011;52.218;1.480;2022-10-31T14:59:24;5.88;;;2.10;;
58214;SDS011;44011;52.218;1.480;2022-10-31T15:01:59;3.80;;;2.10;;
58214;SDS011;44011;52.218;1.480;2022-10-31T15:04:28;3.47;;;1.90;;
58214;SDS011;44011;52.218;1.480;2022-10-31T15:06:57;3.92;;;1.65;;
58214;SDS011;44011;52.218;1.480;2022-10-31T15:09:26;5.03;;;2.60;;
58214;SDS011;44011;52.218;1.480;2022-10-31T15:12:00;10.23;;;2.65;;
58214;SDS011;44011;52.218;1.480;2022-10-31T15:14:27;12.35;;;2.80;;
58214;SDS011;44011;52.218;1.480;2022-10-31T15:16:55;6.25;;;3.13;;
58214;SDS011;44011;52.218;1.480;2022-10-31T15:19:26;6.95;;;2.65;;
58214;SDS011;44011;52.218;1.480;2022-10-31T15:21:53;8.00;;;3.13;;
58214;SDS011;44011;52.218;1.480;2022-10-31T15:24:20;6.30;;;2.60;;
58214;SDS011;44011;52.218;1.480;2022-10-31T15:26:47;6.93;;;2.45;;
58214;SDS011;44011;52.218;1.480;2022-10-31T15:29:19;9.63;;;2.90;;
58214;SDS011;44011;52.218;1.480;2022-10-31T15:31:51;4.70;;;2.17;;
58214;SDS011;44011;52.218;1.480;2022-10-31T15:34:37;4.18;;;2.25;;
58214;SDS011;44011;52.218;1.480;2022-10-31T15:37:04;7.80;;;2.95;;
58214;SDS011;44011;52.218;1.480;2022-10-31T15:39:30;7.97;;;3.22;;
58214;SDS011;44011;52.218;1.480;2022-10-31T15:41:56;9.65;;;3.22;;
58214;SDS011;44011;52.218;1.480;2022-10-31T15:47:04;10.30;;;3.53;;
58214;SDS011;44011;52.218;1.480;2022-10-31T15:49:36;8.93;;;3.28;;
58214;SDS011;44011;52.218;1.480;2022-10-31T15:52:05;7.43;;;3.25;;
58214;SDS011;44011;52.218;1.480;2022-10-31T15:54:55;6.15;;;3.25;;
58214;SDS011;44011;52.218;1.480;2022-10-31T15:57:26;5.80;;;3.30;;
58214;SDS011;44011;52.218;1.480;2022-10-31T15:59:51;7.80;;;3.00;;
58214;SDS011;44011;52.218;1.480;2022-10-31T16:02:19;9.98;;;3.97;;
58214;SDS011;44011;52.218;1.480;2022-10-31T16:07:19;6.30;;;3.22;;
58214;SDS011;44011;52.218;1.480;2022-10-31T16:09:49;5.75;;;3.75;;
58214;SDS011;44011;52.218;1.480;2022-10-31T16:12:16;6.47;;;2.47;;
58214;SDS011;44011;52.218;1.480;2022-10-31T16:14:42;9.45;;;3.03;;
58214;SDS011;44011;52.218;1.480;2022-10-31T16:17:12;8.32;;;3.22;;
58214;SDS011;44011;52.218;1.480;2022-10-31T16:19:44;5.68;;;2.42;;
58214;SDS011;44011;52.218;1.480;2022-10-31T16:24:45;6.28;;;2.08;;
58214;SDS011;44011;52.218;1.480;2022-10-31T16:27:30;8.27;;;2.38;;
58214;SDS011;44011;52.218;1.480;2022-10-31T16:29:58;6.72;;;1.90;;
58214;SDS011;44011;52.218;1.480;2022-10-31T16:37:39;6.45;;;2.17;;
58214;SDS011;44011;52.218;1.480;2022-10-31T16:40:05;7.53;;;2.60;;
58214;SDS011;44011;52.218;1.480;2022-10-31T16:42:31;4.82;;;2.45;;
58214;SDS011;44011;52.218;1.480;2022-10-31T16:44:58;8.10;;;3.08;;
58214;SDS011;44011;52.218;1.480;2022-10-31T16:47:23;9.35;;;2.88;;
58214;SDS011;44011;52.218;1.480;2022-10-31T16:49:49;5.68;;;2.78;;
58214;SDS011;44011;52.218;1.480;2022-10-31T16:52:15;5.82;;;3.33;;
58214;SDS011;44011;52.218;1.480;2022-10-31T16:54:41;8.15;;;3.20;;
58214;SDS011;44011;52.218;1.480;2022-10-31T16:57:09;6.63;;;2.88;;
58214;SDS011;44011;52.218;1.480;2022-10-31T16:59:38;7.68;;;3.00;;
58214;SDS011;44011;52.218;1.480;2022-10-31T17:02:04;9.02;;;3.22;;
58214;SDS011;44011;52.218;1.480;2022-10-31T17:04:29;6.05;;;3.20;;
58214;SDS011;44011;52.218;1.480;2022-10-31T17:06:55;7.43;;;3.83;;
58214;SDS011;44011;52.218;1.480;2022-10-31T17:09:20;6.47;;;3.47;;